createdAt,value
2019-02-02T00:00:23.318Z,964.97
2019-02-02T00:01:23.444Z,964.93
2019-02-02T00:02:23.586Z,964.89
2019-02-02T00:03:23.731Z,964.82
2019-02-02T00:04:23.880Z,964.91
2019-02-02T00:05:24.032Z,964.87
2019-02-02T00:06:24.171Z,964.86
2019-02-02T00:07:24.315Z,964.91
2019-02-02T00:08:24.455Z,964.90
2019-02-02T00:09:24.600Z,964.95
2019-02-02T00:10:24.748Z,964.99
2019-02-02T00:11:24.895Z,965.00
2019-02-02T00:12:25.038Z,965.06
2019-02-02T00:13:25.179Z,965.07
2019-02-02T00:14:25.338Z,965.08
2019-02-02T00:15:25.469Z,965.09
2019-02-02T00:16:25.614Z,965.07
2019-02-02T00:17:25.760Z,965.12
2019-02-02T00:18:25.902Z,965.09
2019-02-02T00:19:26.050Z,965.06
2019-02-02T00:20:26.190Z,965.04
2019-02-02T00:21:26.340Z,965.03
2019-02-02T00:22:26.482Z,965.06
2019-02-02T00:23:26.624Z,965.07
2019-02-02T00:24:26.771Z,965.08
2019-02-02T00:25:26.916Z,965.06
2019-02-02T00:26:27.059Z,965.07
2019-02-02T00:27:27.205Z,965.09
2019-02-02T00:28:27.347Z,965.10
2019-02-02T00:29:27.493Z,965.09
2019-02-02T00:30:27.646Z,965.10
2019-02-02T00:31:27.786Z,965.09
2019-02-02T00:32:27.928Z,965.07
2019-02-02T00:33:28.073Z,965.04
2019-02-02T00:34:28.220Z,965.05
2019-02-02T00:35:28.385Z,965.02
2019-02-02T00:36:28.523Z,965.04
2019-02-02T00:37:28.676Z,964.99
2019-02-02T00:38:28.814Z,964.98
2019-02-02T00:39:28.958Z,964.95
2019-02-02T00:40:29.106Z,964.93
2019-02-02T00:41:29.252Z,964.91
2019-02-02T00:42:29.393Z,964.91
2019-02-02T00:43:29.622Z,964.89
2019-02-02T00:44:29.646Z,964.89
2019-02-02T00:45:29.801Z,964.94
2019-02-02T00:46:29.943Z,964.91
2019-02-02T00:47:30.095Z,964.94
2019-02-02T00:48:30.234Z,964.95
2019-02-02T00:49:30.380Z,964.96
2019-02-02T00:50:30.528Z,965.00
2019-02-02T00:51:30.675Z,964.97
2019-02-02T00:52:30.818Z,965.02
2019-02-02T00:53:30.962Z,965.03
2019-02-02T00:54:31.110Z,965.01
2019-02-02T00:55:31.252Z,965.05
2019-02-02T00:56:31.396Z,965.05
2019-02-02T00:57:31.542Z,965.02
2019-02-02T00:58:31.687Z,965.02
2019-02-02T00:59:31.831Z,965.01
2019-02-02T01:00:31.975Z,965.04
2019-02-02T01:01:32.119Z,965.06
2019-02-02T01:02:32.268Z,965.09
2019-02-02T01:03:32.411Z,965.12
2019-02-02T01:04:32.558Z,965.11
2019-02-02T01:05:32.697Z,965.18
2019-02-02T01:06:32.841Z,965.19
2019-02-02T01:07:32.989Z,965.21
2019-02-02T01:08:33.133Z,965.26
2019-02-02T01:09:33.278Z,965.29
2019-02-02T01:10:33.423Z,965.29
2019-02-02T01:11:33.571Z,965.34
2019-02-02T01:12:33.719Z,965.31
2019-02-02T01:13:33.859Z,965.32
2019-02-02T01:14:34.007Z,965.30
2019-02-02T01:15:34.151Z,965.37
2019-02-02T01:16:34.294Z,965.38
2019-02-02T01:17:34.444Z,965.36
2019-02-02T01:18:34.588Z,965.37
2019-02-02T01:19:34.737Z,965.34
2019-02-02T01:20:34.882Z,965.31
2019-02-02T01:21:35.027Z,965.30
2019-02-02T01:22:35.173Z,965.29
2019-02-02T01:23:35.319Z,965.29
2019-02-02T01:24:35.464Z,965.28
2019-02-02T01:25:35.611Z,965.24
2019-02-02T01:26:35.760Z,965.20
2019-02-02T01:27:35.900Z,965.15
2019-02-02T01:28:36.044Z,965.08
2019-02-02T01:29:36.190Z,965.07
2019-02-02T01:30:36.349Z,965.02
2019-02-02T01:31:36.484Z,964.99
2019-02-02T01:32:36.629Z,964.96
2019-02-02T01:33:36.770Z,964.90
2019-02-02T01:34:36.917Z,964.97
2019-02-02T01:35:37.060Z,965.02
2019-02-02T01:36:37.208Z,965.01
2019-02-02T01:37:37.352Z,965.04
2019-02-02T01:38:37.496Z,965.05
2019-02-02T01:39:37.641Z,965.01
2019-02-02T01:40:37.786Z,965.00
2019-02-02T01:41:37.931Z,965.02
2019-02-02T01:42:38.074Z,965.04
2019-02-02T01:43:38.220Z,965.11
2019-02-02T01:44:38.365Z,965.07
2019-02-02T01:45:38.514Z,965.08
2019-02-02T01:46:38.657Z,965.08
2019-02-02T01:47:38.800Z,965.03
2019-02-02T01:48:38.945Z,964.99
2019-02-02T01:49:39.089Z,965.02
2019-02-02T01:50:39.234Z,965.06
2019-02-02T01:51:39.379Z,965.08
2019-02-02T01:52:39.524Z,965.07
2019-02-02T01:53:39.671Z,965.06
2019-02-02T01:54:39.813Z,965.04
2019-02-02T01:55:39.956Z,965.01
2019-02-02T01:56:40.105Z,964.98
2019-02-02T01:57:40.244Z,964.94
2019-02-02T01:58:40.390Z,964.90
2019-02-02T01:59:40.531Z,964.89
2019-02-02T02:00:40.756Z,964.85
2019-02-02T02:01:41.719Z,964.84
2019-02-02T02:02:40.965Z,964.87
2019-02-02T02:03:41.107Z,964.93
2019-02-02T02:04:41.253Z,965.03
2019-02-02T02:05:41.397Z,965.05
2019-02-02T02:06:41.538Z,965.08
2019-02-02T02:07:41.683Z,965.06
2019-02-02T02:08:41.827Z,965.02
2019-02-02T02:09:41.971Z,964.99
2019-02-02T02:10:42.114Z,964.98
2019-02-02T02:11:42.259Z,965.00
2019-02-02T02:12:42.401Z,964.95
2019-02-02T02:13:42.548Z,965.02
2019-02-02T02:14:42.689Z,965.00
2019-02-02T02:15:42.832Z,964.99
2019-02-02T02:16:42.986Z,965.00
2019-02-02T02:17:43.122Z,965.00
2019-02-02T02:18:43.267Z,965.03
2019-02-02T02:19:43.413Z,965.09
2019-02-02T02:20:43.554Z,965.13
2019-02-02T02:21:43.699Z,965.12
2019-02-02T02:22:43.843Z,965.13
2019-02-02T02:23:43.985Z,965.14
2019-02-02T02:24:44.139Z,965.15
2019-02-02T02:25:44.259Z,965.15
2019-02-02T02:26:44.403Z,965.08
2019-02-02T02:27:44.549Z,965.03
2019-02-02T02:28:44.696Z,964.97
2019-02-02T02:29:44.840Z,964.95
2019-02-02T02:30:47.287Z,964.95
2019-02-02T02:31:45.148Z,964.88
2019-02-02T02:32:45.303Z,964.85
2019-02-02T02:33:45.412Z,964.83
2019-02-02T02:34:45.555Z,964.75
2019-02-02T02:35:45.700Z,964.73
2019-02-02T02:36:45.846Z,964.68
2019-02-02T02:37:45.990Z,964.68
2019-02-02T02:38:46.288Z,964.66
2019-02-02T02:39:46.277Z,964.71
2019-02-02T02:40:46.420Z,964.70
2019-02-02T02:41:46.566Z,964.74
2019-02-02T02:42:46.707Z,964.71
2019-02-02T02:43:46.858Z,964.70
2019-02-02T02:44:46.996Z,964.73
2019-02-02T02:45:47.139Z,964.68
2019-02-02T02:46:47.287Z,964.75
2019-02-02T02:47:47.430Z,964.70
2019-02-02T02:48:47.578Z,964.71
2019-02-02T02:49:47.716Z,964.75
2019-02-02T02:50:47.856Z,964.70
2019-02-02T02:51:48.003Z,964.72
2019-02-02T02:52:48.146Z,964.72
2019-02-02T02:53:48.291Z,964.74
2019-02-02T02:54:48.439Z,964.76
2019-02-02T02:55:48.583Z,964.77
2019-02-02T02:56:48.727Z,964.84
2019-02-02T02:57:48.871Z,964.86
2019-02-02T02:58:49.016Z,964.89
2019-02-02T02:59:49.163Z,964.89
2019-02-02T03:00:49.305Z,964.93
2019-02-02T03:01:49.448Z,964.97
2019-02-02T03:02:49.591Z,965.03
2019-02-02T03:03:49.740Z,965.06
2019-02-02T03:04:49.933Z,965.11
2019-02-02T03:05:50.023Z,965.13
2019-02-02T03:06:50.170Z,965.15
2019-02-02T03:07:50.312Z,965.12
2019-02-02T03:08:50.455Z,965.12
2019-02-02T03:09:50.599Z,965.12
2019-02-02T03:10:50.743Z,965.10
2019-02-02T03:11:50.885Z,965.08
2019-02-02T03:12:51.030Z,965.12
2019-02-02T03:13:51.172Z,965.10
2019-02-02T03:14:51.316Z,965.12
2019-02-02T03:15:51.462Z,965.11
2019-02-02T03:16:51.604Z,965.15
2019-02-02T03:17:51.748Z,965.22
2019-02-02T03:18:51.892Z,965.24
2019-02-02T03:19:52.035Z,965.28
2019-02-02T03:20:52.179Z,965.34
2019-02-02T03:21:52.330Z,965.31
2019-02-02T03:22:52.466Z,965.30
2019-02-02T03:23:52.612Z,965.30
2019-02-02T03:24:52.753Z,965.30
2019-02-02T03:25:52.901Z,965.31
2019-02-02T03:26:53.042Z,965.30
2019-02-02T03:27:53.183Z,965.28
2019-02-02T03:28:53.820Z,965.30
2019-02-02T03:29:53.471Z,965.32
2019-02-02T03:30:53.649Z,965.28
2019-02-02T03:31:53.767Z,965.27
2019-02-02T03:32:53.915Z,965.30
2019-02-02T03:33:54.050Z,965.36
2019-02-02T03:34:54.193Z,965.33
2019-02-02T03:35:54.339Z,965.40
2019-02-02T03:36:54.489Z,965.42
2019-02-02T03:37:54.631Z,965.49
2019-02-02T03:38:54.777Z,965.50
2019-02-02T03:39:54.919Z,965.50
2019-02-02T03:40:55.065Z,965.48
2019-02-02T03:41:55.216Z,965.49
2019-02-02T03:42:55.356Z,965.47
2019-02-02T03:43:55.519Z,965.43
2019-02-02T03:44:55.644Z,965.38
2019-02-02T03:45:55.786Z,965.35
2019-02-02T03:46:55.929Z,965.37
2019-02-02T03:47:56.082Z,965.36
2019-02-02T03:48:56.221Z,965.36
2019-02-02T03:49:56.363Z,965.38
2019-02-02T03:50:56.506Z,965.36
2019-02-02T03:51:56.651Z,965.41
2019-02-02T03:52:56.793Z,965.48
2019-02-02T03:54:08.217Z,965.50
2019-02-02T03:54:57.083Z,965.50
2019-02-02T03:55:57.227Z,965.51
2019-02-02T03:56:57.372Z,965.54
2019-02-02T03:57:57.514Z,965.51
2019-02-02T03:59:06.275Z,965.49
2019-02-02T03:59:57.803Z,965.50
2019-02-02T04:00:57.949Z,965.49
2019-02-02T04:01:58.096Z,965.47
2019-02-02T04:02:58.234Z,965.47
2019-02-02T04:03:58.380Z,965.50
2019-02-02T04:04:58.523Z,965.52
2019-02-02T04:05:58.667Z,965.53
2019-02-02T04:06:58.813Z,965.57
2019-02-02T04:07:58.953Z,965.57
2019-02-02T04:08:59.100Z,965.56
2019-02-02T04:09:59.244Z,965.55
2019-02-02T04:10:59.394Z,965.55
2019-02-02T04:11:59.528Z,965.52
2019-02-02T04:12:59.674Z,965.52
2019-02-02T04:13:59.823Z,965.49
2019-02-02T04:14:59.963Z,965.47
2019-02-02T04:16:00.110Z,965.46
2019-02-02T04:17:00.254Z,965.43
2019-02-02T04:18:00.395Z,965.41
2019-02-02T04:19:00.539Z,965.42
2019-02-02T04:20:00.685Z,965.43
2019-02-02T04:21:00.829Z,965.45
2019-02-02T04:22:01.009Z,965.42
2019-02-02T04:23:01.119Z,965.39
2019-02-02T04:24:01.295Z,965.37
2019-02-02T04:25:01.403Z,965.33
2019-02-02T04:26:01.547Z,965.30
2019-02-02T04:27:01.689Z,965.29
2019-02-02T04:28:01.830Z,965.26
2019-02-02T04:29:01.982Z,965.28
2019-02-02T04:30:02.119Z,965.30
2019-02-02T04:31:02.266Z,965.29
2019-02-02T04:32:02.408Z,965.33
2019-02-02T04:33:02.552Z,965.34
2019-02-02T04:34:02.695Z,965.34
2019-02-02T04:35:02.840Z,965.33
2019-02-02T04:36:02.981Z,965.35
2019-02-02T04:37:03.129Z,965.29
2019-02-02T04:38:03.272Z,965.34
2019-02-02T04:39:03.413Z,965.30
2019-02-02T04:40:03.560Z,965.30
2019-02-02T04:41:03.705Z,965.31
2019-02-02T04:42:03.849Z,965.32
2019-02-02T04:43:03.991Z,965.33
2019-02-02T04:44:04.137Z,965.35
2019-02-02T04:45:04.280Z,965.29
2019-02-02T04:46:04.425Z,965.25
2019-02-02T04:47:04.567Z,965.27
2019-02-02T04:48:04.709Z,965.26
2019-02-02T04:49:04.855Z,965.31
2019-02-02T04:50:05.000Z,965.29
2019-02-02T04:51:05.142Z,965.31
2019-02-02T04:52:05.287Z,965.34
2019-02-02T04:53:05.430Z,965.35
2019-02-02T04:54:05.572Z,965.42
2019-02-02T04:55:05.721Z,965.41
2019-02-02T04:56:05.861Z,965.39
2019-02-02T04:57:06.008Z,965.44
2019-02-02T04:58:06.150Z,965.47
2019-02-02T04:59:06.294Z,965.48
2019-02-02T05:00:06.438Z,965.51
2019-02-02T05:01:06.581Z,965.50
2019-02-02T05:02:06.728Z,965.55
2019-02-02T05:03:06.876Z,965.53
2019-02-02T05:04:07.015Z,965.54
2019-02-02T05:05:07.166Z,965.54
2019-02-02T05:06:07.306Z,965.57
2019-02-02T05:07:07.447Z,965.52
2019-02-02T05:08:07.593Z,965.48
2019-02-02T05:09:07.737Z,965.43
2019-02-02T05:10:07.882Z,965.44
2019-02-02T05:11:08.027Z,965.39
2019-02-02T05:12:08.169Z,965.40
2019-02-02T05:13:08.315Z,965.34
2019-02-02T05:14:08.459Z,965.36
2019-02-02T05:15:08.606Z,965.33
2019-02-02T05:16:08.746Z,965.26
2019-02-02T05:17:08.890Z,965.32
2019-02-02T05:18:09.032Z,965.36
2019-02-02T05:19:09.178Z,965.42
2019-02-02T05:20:09.325Z,965.44
2019-02-02T05:21:09.478Z,965.44
2019-02-02T05:22:09.607Z,965.44
2019-02-02T05:23:09.756Z,965.50
2019-02-02T05:24:09.895Z,965.45
2019-02-02T05:25:10.064Z,965.46
2019-02-02T05:26:10.185Z,965.46
2019-02-02T05:27:10.330Z,965.46
2019-02-02T05:28:10.476Z,965.51
2019-02-02T05:29:10.614Z,965.57
2019-02-02T05:30:10.761Z,965.55
2019-02-02T05:31:10.906Z,965.52
2019-02-02T05:32:11.050Z,965.50
2019-02-02T05:33:11.193Z,965.55
2019-02-02T05:34:11.337Z,965.51
2019-02-02T05:35:11.480Z,965.53
2019-02-02T05:36:11.624Z,965.50
2019-02-02T05:37:11.767Z,965.47
2019-02-02T05:38:11.915Z,965.50
2019-02-02T05:39:12.056Z,965.51
2019-02-02T05:40:12.200Z,965.51
2019-02-02T05:41:12.349Z,965.47
2019-02-02T05:42:12.490Z,965.50
2019-02-02T05:43:12.628Z,965.57
2019-02-02T05:44:12.772Z,965.62
2019-02-02T05:45:12.916Z,965.66
2019-02-02T05:46:13.064Z,965.67
2019-02-02T05:47:13.206Z,965.73
2019-02-02T05:48:13.350Z,965.73
2019-02-02T05:49:13.506Z,965.78
2019-02-02T05:50:13.637Z,965.87
2019-02-02T05:51:13.779Z,965.92
2019-02-02T05:52:13.922Z,965.99
2019-02-02T05:53:14.063Z,965.98
2019-02-02T05:54:14.213Z,965.99
2019-02-02T05:55:14.359Z,966.03
2019-02-02T05:56:14.497Z,966.00
2019-02-02T05:57:14.639Z,965.93
2019-02-02T05:58:14.789Z,965.88
2019-02-02T05:59:14.931Z,965.81
2019-02-02T06:00:15.076Z,965.74
2019-02-02T06:01:15.225Z,965.72
2019-02-02T06:02:15.367Z,965.71
2019-02-02T06:03:15.509Z,965.65
2019-02-02T06:04:15.649Z,965.67
2019-02-02T06:05:15.793Z,965.65
2019-02-02T06:06:15.937Z,965.64
2019-02-02T06:07:16.081Z,965.69
2019-02-02T06:08:16.227Z,965.73
2019-02-02T06:09:16.369Z,965.76
2019-02-02T06:10:16.516Z,965.72
2019-02-02T06:11:16.659Z,965.69
2019-02-02T06:12:16.806Z,965.66
2019-02-02T06:13:16.947Z,965.62
2019-02-02T06:14:17.091Z,965.61
2019-02-02T06:15:17.235Z,965.64
2019-02-02T06:16:17.378Z,965.72
2019-02-02T06:17:17.522Z,965.76
2019-02-02T06:18:17.669Z,965.81
2019-02-02T06:19:17.811Z,965.79
2019-02-02T06:20:17.957Z,965.78
2019-02-02T06:21:18.099Z,965.78
2019-02-02T06:22:18.243Z,965.95
2019-02-02T06:23:18.385Z,966.02
2019-02-02T06:24:18.534Z,966.06
2019-02-02T06:25:18.680Z,966.07
2019-02-02T06:26:18.820Z,965.96
2019-02-02T06:27:18.965Z,965.91
2019-02-02T06:28:19.109Z,965.96
2019-02-02T06:29:19.255Z,966.05
2019-02-02T06:30:19.397Z,966.10
2019-02-02T06:31:19.539Z,966.18
2019-02-02T06:32:19.683Z,966.17
2019-02-02T06:33:19.832Z,966.18
2019-02-02T06:34:19.972Z,966.18
2019-02-02T06:35:20.117Z,966.26
2019-02-02T06:36:20.262Z,966.28
2019-02-02T06:37:20.406Z,966.35
2019-02-02T06:38:20.553Z,966.36
2019-02-02T06:39:20.695Z,966.36
2019-02-02T06:40:20.841Z,966.36
2019-02-02T06:41:20.985Z,966.38
2019-02-02T06:42:21.131Z,966.33
2019-02-02T06:43:21.277Z,966.32
2019-02-02T06:44:21.420Z,966.31
2019-02-02T06:45:21.567Z,966.32
2019-02-02T06:46:21.710Z,966.33
2019-02-02T06:47:21.854Z,966.33
2019-02-02T06:48:21.998Z,966.30
2019-02-02T06:49:22.145Z,966.28
2019-02-02T06:50:22.294Z,966.25
2019-02-02T06:51:22.435Z,966.23
2019-02-02T06:52:22.581Z,966.21
2019-02-02T06:53:22.726Z,966.21
2019-02-02T06:54:22.874Z,966.18
2019-02-02T06:55:23.020Z,966.19
2019-02-02T06:56:23.160Z,966.15
2019-02-02T06:57:23.305Z,966.12
2019-02-02T06:58:23.451Z,966.14
2019-02-02T06:59:23.596Z,966.18
2019-02-02T07:00:26.379Z,966.20
2019-02-02T07:01:23.888Z,966.18
2019-02-02T07:02:24.034Z,966.13
2019-02-02T07:03:24.178Z,966.08
2019-02-02T07:04:24.325Z,966.11
2019-02-02T07:05:24.471Z,966.16
2019-02-02T07:06:24.612Z,966.32
2019-02-02T07:07:24.759Z,966.34
2019-02-02T07:08:24.903Z,966.33
2019-02-02T07:09:25.050Z,966.25
2019-02-02T07:10:25.195Z,966.17
2019-02-02T07:11:25.340Z,966.18
2019-02-02T07:12:25.484Z,966.18
2019-02-02T07:13:25.639Z,966.21
2019-02-02T07:14:25.791Z,966.26
2019-02-02T07:15:25.931Z,966.28
2019-02-02T07:16:26.075Z,966.29
2019-02-02T07:17:26.221Z,966.27
2019-02-02T07:18:26.364Z,966.28
2019-02-02T07:19:29.104Z,966.30
2019-02-02T07:20:26.655Z,966.32
2019-02-02T07:21:26.799Z,966.32
2019-02-02T07:22:26.944Z,966.38
2019-02-02T07:23:27.090Z,966.36
2019-02-02T07:24:27.239Z,966.32
2019-02-02T07:25:27.383Z,966.35
2019-02-02T07:26:27.527Z,966.33
2019-02-02T07:27:27.671Z,966.38
2019-02-02T07:28:27.818Z,966.41
2019-02-02T07:29:27.970Z,966.43
2019-02-02T07:30:29.648Z,966.50
2019-02-02T07:31:28.257Z,966.53
2019-02-02T07:32:28.403Z,966.56
2019-02-02T07:33:28.549Z,966.57
2019-02-02T07:34:28.696Z,966.63
2019-02-02T07:35:28.845Z,966.61
2019-02-02T07:36:28.987Z,966.67
2019-02-02T07:37:29.132Z,966.64
2019-02-02T07:38:29.275Z,966.68
2019-02-02T07:39:29.422Z,966.78
2019-02-02T07:40:29.572Z,966.95
2019-02-02T07:41:29.716Z,967.02
2019-02-02T07:42:29.860Z,967.09
2019-02-02T07:43:30.006Z,967.13
2019-02-02T07:44:30.154Z,967.09
2019-02-02T07:45:30.297Z,967.08
2019-02-02T07:46:30.443Z,967.09
2019-02-02T07:47:30.588Z,967.12
2019-02-02T07:48:30.736Z,967.14
2019-02-02T07:49:30.880Z,967.23
2019-02-02T07:50:31.026Z,967.22
2019-02-02T07:51:31.172Z,967.24
2019-02-02T07:52:31.318Z,967.24
2019-02-02T07:53:31.463Z,967.25
2019-02-02T07:54:33.159Z,967.25
2019-02-02T07:55:31.759Z,967.29
2019-02-02T07:56:31.903Z,967.26
2019-02-02T07:57:32.049Z,967.28
2019-02-02T07:58:32.193Z,967.27
2019-02-02T07:59:32.339Z,967.31
2019-02-02T08:00:40.427Z,967.35
2019-02-02T08:01:32.630Z,967.36
2019-02-02T08:02:32.778Z,967.36
2019-02-02T08:03:32.923Z,967.40
2019-02-02T08:04:33.069Z,967.43
2019-02-02T08:05:33.218Z,967.47
2019-02-02T08:06:33.362Z,967.46
2019-02-02T08:07:33.507Z,967.48
2019-02-02T08:08:33.654Z,967.45
2019-02-02T08:09:33.799Z,967.45
2019-02-02T08:10:33.948Z,967.51
2019-02-02T08:11:34.092Z,967.57
2019-02-02T08:12:34.239Z,967.59
2019-02-02T08:13:34.385Z,967.61
2019-02-02T08:14:34.532Z,967.56
2019-02-02T08:15:34.673Z,967.54
2019-02-02T08:16:34.820Z,967.53
2019-02-02T08:17:34.964Z,967.52
2019-02-02T08:18:35.108Z,967.46
2019-02-02T08:19:35.256Z,967.41
2019-02-02T08:20:35.402Z,967.41
2019-02-02T08:21:35.547Z,967.46
2019-02-02T08:22:35.694Z,967.44
2019-02-02T08:23:35.838Z,967.47
2019-02-02T08:24:38.553Z,967.50
2019-02-02T08:25:36.129Z,967.51
2019-02-02T08:26:36.274Z,967.51
2019-02-02T08:27:36.422Z,967.51
2019-02-02T08:28:36.569Z,967.51
2019-02-02T08:29:36.713Z,967.47
2019-02-02T08:30:36.859Z,967.48
2019-02-02T08:31:37.005Z,967.53
2019-02-02T08:32:37.149Z,967.54
2019-02-02T08:33:37.292Z,967.52
2019-02-02T08:34:37.438Z,967.60
2019-02-02T08:35:37.583Z,967.59
2019-02-02T08:36:37.730Z,967.70
2019-02-02T08:37:37.878Z,967.71
2019-02-02T08:38:38.029Z,967.74
2019-02-02T08:39:38.174Z,967.79
2019-02-02T08:40:38.314Z,967.75
2019-02-02T08:41:38.461Z,967.79
2019-02-02T08:42:38.609Z,967.78
2019-02-02T08:43:38.757Z,967.79
2019-02-02T08:44:38.901Z,967.82
2019-02-02T08:45:39.064Z,967.82
2019-02-02T08:46:39.212Z,967.88
2019-02-02T08:47:39.356Z,967.91
2019-02-02T08:48:39.503Z,967.91
2019-02-02T08:49:40.394Z,967.90
2019-02-02T08:50:39.792Z,967.96
2019-02-02T08:51:39.936Z,967.92
2019-02-02T08:52:40.098Z,967.97
2019-02-02T08:53:40.242Z,968.00
2019-02-02T08:54:40.389Z,968.02
2019-02-02T08:55:40.539Z,968.01
2019-02-02T08:56:40.682Z,968.03
2019-02-02T08:57:40.897Z,968.02
2019-02-02T08:58:40.985Z,968.00
2019-02-02T08:59:41.123Z,968.01
2019-02-02T09:00:41.265Z,967.96
2019-02-02T09:01:41.413Z,967.99
2019-02-02T09:02:41.559Z,967.94
2019-02-02T09:03:41.748Z,967.99
2019-02-02T09:04:41.873Z,967.97
2019-02-02T09:05:41.998Z,967.95
2019-02-02T09:06:42.155Z,967.94
2019-02-02T09:07:42.301Z,967.91
2019-02-02T09:08:42.447Z,967.93
2019-02-02T09:09:42.590Z,967.93
2019-02-02T09:10:42.734Z,967.92
2019-02-02T09:11:42.883Z,967.95
2019-02-02T09:12:43.026Z,967.98
2019-02-02T09:13:43.172Z,967.98
2019-02-02T09:14:43.314Z,968.05
2019-02-02T09:15:43.496Z,968.04
2019-02-02T09:16:43.609Z,968.03
2019-02-02T09:17:43.735Z,967.97
2019-02-02T09:18:43.882Z,968.02
2019-02-02T09:19:44.027Z,968.07
2019-02-02T09:20:44.176Z,968.05
2019-02-02T09:21:44.392Z,968.09
2019-02-02T09:22:44.420Z,968.10
2019-02-02T09:23:44.560Z,968.11
2019-02-02T09:24:44.714Z,968.18
2019-02-02T09:25:44.936Z,968.22
2019-02-02T09:26:44.956Z,968.22
2019-02-02T09:27:45.105Z,968.29
2019-02-02T09:28:45.249Z,968.28
2019-02-02T09:29:47.712Z,968.33
2019-02-02T09:30:45.544Z,968.31
2019-02-02T09:31:45.688Z,968.33
2019-02-02T09:32:45.835Z,968.33
2019-02-02T09:33:45.980Z,968.33
2019-02-02T09:34:46.122Z,968.34
2019-02-02T09:35:46.279Z,968.35
2019-02-02T09:36:46.441Z,968.32
2019-02-02T09:37:46.585Z,968.33
2019-02-02T09:38:46.749Z,968.37
2019-02-02T09:39:46.903Z,968.34
2019-02-02T09:40:47.060Z,968.42
2019-02-02T09:41:47.201Z,968.46
2019-02-02T09:42:47.345Z,968.46
2019-02-02T09:43:47.493Z,968.50
2019-02-02T09:44:47.638Z,968.52
2019-02-02T09:45:47.782Z,968.52
2019-02-02T09:46:47.931Z,968.56
2019-02-02T09:47:48.072Z,968.62
2019-02-02T09:48:48.240Z,968.65
2019-02-02T09:49:48.386Z,968.68
2019-02-02T09:50:48.528Z,968.71
2019-02-02T09:51:48.678Z,968.71
2019-02-02T09:52:48.825Z,968.76
2019-02-02T09:53:48.973Z,968.80
2019-02-02T09:54:49.115Z,968.79
2019-02-02T09:55:49.258Z,968.82
2019-02-02T09:56:49.400Z,968.81
2019-02-02T09:57:49.545Z,968.84
2019-02-02T09:58:49.690Z,968.85
2019-02-02T09:59:49.838Z,968.89
2019-02-02T10:00:49.980Z,968.88
2019-02-02T10:01:50.132Z,968.89
2019-02-02T10:02:50.279Z,968.88
2019-02-02T10:03:50.422Z,968.87
2019-02-02T10:04:50.560Z,968.89
2019-02-02T10:05:50.707Z,968.86
2019-02-02T10:06:50.853Z,968.89
2019-02-02T10:07:50.995Z,968.95
2019-02-02T10:08:51.155Z,968.95
2019-02-02T10:09:51.304Z,968.90
2019-02-02T10:10:51.450Z,968.90
2019-02-02T10:11:51.596Z,968.93
2019-02-02T10:12:51.740Z,968.97
2019-02-02T10:13:52.316Z,968.98
2019-02-02T10:14:52.045Z,968.94
2019-02-02T10:15:52.192Z,968.98
2019-02-02T10:16:52.336Z,968.96
2019-02-02T10:17:52.483Z,968.97
2019-02-02T10:18:52.626Z,968.99
2019-02-02T10:19:52.772Z,968.98
2019-02-02T10:21:03.298Z,969.05
2019-02-02T10:21:53.060Z,969.06
2019-02-02T10:22:53.208Z,969.09
2019-02-02T10:23:53.349Z,969.06
2019-02-02T10:24:53.495Z,969.02
2019-02-02T10:25:53.639Z,969.02
2019-02-02T10:26:53.782Z,969.01
2019-02-02T10:27:53.928Z,969.02
2019-02-02T10:28:54.074Z,969.00
2019-02-02T10:29:54.222Z,969.01
2019-02-02T10:30:54.366Z,969.00
2019-02-02T10:31:54.512Z,969.03
2019-02-02T10:32:54.656Z,969.02
2019-02-02T10:33:54.804Z,969.03
2019-02-02T10:34:54.950Z,969.07
2019-02-02T10:35:55.094Z,969.04
2019-02-02T10:36:55.241Z,969.06
2019-02-02T10:37:55.388Z,969.07
2019-02-02T10:38:55.550Z,969.10
2019-02-02T10:39:55.692Z,969.08
2019-02-02T10:40:55.839Z,969.12
2019-02-02T10:41:55.988Z,969.12
2019-02-02T10:42:56.131Z,969.05
2019-02-02T10:43:56.281Z,969.09
2019-02-02T10:44:56.425Z,969.08
2019-02-02T10:45:56.572Z,969.11
2019-02-02T10:46:56.715Z,969.13
2019-02-02T10:47:56.868Z,969.08
2019-02-02T10:48:57.033Z,969.07
2019-02-02T10:49:57.186Z,969.09
2019-02-02T10:50:57.329Z,969.07
2019-02-02T10:51:57.474Z,969.09
2019-02-02T10:52:57.628Z,969.07
2019-02-02T10:53:57.767Z,969.11
2019-02-02T10:54:57.916Z,969.10
2019-02-02T10:55:58.063Z,969.12
2019-02-02T10:56:58.210Z,969.12
2019-02-02T10:57:58.363Z,969.12
2019-02-02T10:58:58.510Z,969.12
2019-02-02T10:59:58.657Z,969.15
2019-02-02T11:00:58.803Z,969.12
2019-02-02T11:01:58.948Z,969.14
2019-02-02T11:02:59.092Z,969.10
2019-02-02T11:03:59.241Z,969.07
2019-02-02T11:04:59.390Z,969.10
2019-02-02T11:05:59.533Z,969.10
2019-02-02T11:06:59.725Z,969.12
2019-02-02T11:07:59.832Z,969.12
2019-02-02T11:08:59.985Z,969.15
2019-02-02T11:10:00.222Z,969.16
2019-02-02T11:11:00.332Z,969.20
2019-02-02T11:12:00.411Z,969.20
2019-02-02T11:13:00.636Z,969.20
2019-02-02T11:14:00.711Z,969.21
2019-02-02T11:15:00.901Z,969.20
2019-02-02T11:16:01.132Z,969.22
2019-02-02T11:17:01.149Z,969.16
2019-02-02T11:18:01.372Z,969.20
2019-02-02T11:19:01.537Z,969.13
2019-02-02T11:20:01.724Z,969.20
2019-02-02T11:21:01.879Z,969.20
2019-02-02T11:22:01.942Z,969.22
2019-02-02T11:23:02.184Z,969.24
2019-02-02T11:24:02.152Z,969.25
2019-02-02T11:25:02.311Z,969.24
2019-02-02T11:26:02.472Z,969.29
2019-02-02T11:27:02.694Z,969.30
2019-02-02T11:28:02.780Z,969.31
2019-02-02T11:29:03.014Z,969.29
2019-02-02T11:30:03.060Z,969.32
2019-02-02T11:31:03.173Z,969.30
2019-02-02T11:32:03.347Z,969.33
2019-02-02T11:33:03.470Z,969.34
2019-02-02T11:34:03.614Z,969.36
2019-02-02T11:35:03.762Z,969.40
2019-02-02T11:36:03.908Z,969.43
2019-02-02T11:37:04.052Z,969.50
2019-02-02T11:38:04.195Z,969.55
2019-02-02T11:39:04.336Z,969.57
2019-02-02T11:40:04.483Z,969.59
2019-02-02T11:41:04.629Z,969.61
2019-02-02T11:42:04.781Z,969.62
2019-02-02T11:43:04.922Z,969.60
2019-02-02T11:44:05.070Z,969.60
2019-02-02T11:45:05.220Z,969.57
2019-02-02T11:46:05.363Z,969.62
2019-02-02T11:47:05.512Z,969.59
2019-02-02T11:48:05.654Z,969.58
2019-02-02T11:49:05.802Z,969.61
2019-02-02T11:50:05.950Z,969.58
2019-02-02T11:51:06.095Z,969.63
2019-02-02T11:52:06.235Z,969.60
2019-02-02T11:53:06.384Z,969.62
2019-02-02T11:54:06.530Z,969.61
2019-02-02T11:55:06.677Z,969.62
2019-02-02T11:56:06.827Z,969.62
2019-02-02T11:57:06.969Z,969.61
2019-02-02T11:58:07.116Z,969.59
2019-02-02T11:59:07.260Z,969.60
2019-02-02T12:00:07.410Z,969.63
2019-02-02T12:01:07.557Z,969.59
2019-02-02T12:02:14.519Z,969.62
2019-02-02T12:03:07.853Z,969.62
2019-02-02T12:04:07.994Z,969.64
2019-02-02T12:05:08.142Z,969.64
2019-02-02T12:06:08.283Z,969.61
2019-02-02T12:07:08.428Z,969.65
2019-02-02T12:08:08.658Z,969.58
2019-02-02T12:09:08.720Z,969.62
2019-02-02T12:10:08.868Z,969.59
2019-02-02T12:11:09.018Z,969.59
2019-02-02T12:12:09.159Z,969.60
2019-02-02T12:13:09.305Z,969.63
2019-02-02T12:14:09.453Z,969.64
2019-02-02T12:15:09.593Z,969.69
2019-02-02T12:16:09.740Z,969.69
2019-02-02T12:17:09.883Z,969.67
2019-02-02T12:18:11.888Z,969.70
2019-02-02T12:19:10.186Z,969.69
2019-02-02T12:20:10.355Z,969.70
2019-02-02T12:21:10.501Z,969.68
2019-02-02T12:22:10.656Z,969.74
2019-02-02T12:23:10.807Z,969.74
2019-02-02T12:24:14.305Z,969.76
2019-02-02T12:25:11.101Z,969.78
2019-02-02T12:26:11.249Z,969.79
2019-02-02T12:27:11.398Z,969.79
2019-02-02T12:28:11.551Z,969.83
2019-02-02T12:29:11.696Z,969.83
2019-02-02T12:30:11.842Z,969.87